sensor_id;sensor_type;location;lat;lon;timestamp;pressure;altitude;pressure_sealevel;temperature;humidity
11682;BME280;5897;42.640;23.310;2022-08-21T00:00:22;93423.72;;;20.06;100.00
11682;BME280;5897;42.640;23.310;2022-08-21T00:02:51;93408.53;;;20.11;100.00
11682;BME280;5897;42.640;23.310;2022-08-21T00:05:19;93407.75;;;20.05;100.00
11682;BME280;5897;42.640;23.310;2022-08-21T00:07:46;93409.72;;;19.99;100.00
11682;BME280;5897;42.640;23.310;2022-08-21T00:10:14;93411.75;;;20.09;100.00
11682;BME280;5897;42.640;23.310;2022-08-21T00:12:42;93403.25;;;20.02;100.00
11682;BME280;5897;42.640;23.310;2022-08-21T00:15:13;93398.00;;;19.93;100.00
11682;BME280;5897;42.640;23.310;2022-08-21T00:17:42;93398.53;;;19.91;100.00
11682;BME280;5897;42.640;23.310;2022-08-21T00:20:11;93396.28;;;19.90;100.00
11682;BME280;5897;42.640;23.310;2022-08-21T00:22:38;93387.31;;;19.84;100.00
11682;BME280;5897;42.640;23.310;2022-08-21T00:25:06;93390.78;;;19.90;100.00
11682;BME280;5897;42.640;23.310;2022-08-21T00:27:34;93388.03;;;19.84;100.00
11682;BME280;5897;42.640;23.310;2022-08-21T00:30:02;93394.28;;;19.96;100.00
11682;BME280;5897;42.640;23.310;2022-08-21T00:32:29;93383.28;;;20.01;100.00
11682;BME280;5897;42.640;23.310;2022-08-21T00:34:57;93388.06;;;20.06;100.00
11682;BME280;5897;42.640;23.310;2022-08-21T00:37:24;93375.59;;;20.00;100.00
11682;BME280;5897;42.640;23.310;2022-08-21T00:39:51;93386.31;;;20.09;100.00
11682;BME280;5897;42.640;23.310;2022-08-21T00:42:18;93385.56;;;20.14;100.00
11682;BME280;5897;42.640;23.310;2022-08-21T00:44:47;93387.56;;;20.08;100.00
11682;BME280;5897;42.640;23.310;2022-08-21T00:47:15;93397.53;;;20.00;100.00
11682;BME280;5897;42.640;23.310;2022-08-21T00:49:43;93395.25;;;20.04;100.00
11682;BME280;5897;42.640;23.310;2022-08-21T00:52:14;93391.56;;;20.07;100.00
11682;BME280;5897;42.640;23.310;2022-08-21T00:54:42;93392.28;;;20.07;100.00
11682;BME280;5897;42.640;23.310;2022-08-21T00:57:14;93381.06;;;20.00;100.00
11682;BME280;5897;42.640;23.310;2022-08-21T00:59:44;93389.06;;;20.09;100.00
11682;BME280;5897;42.640;23.310;2022-08-21T01:02:12;93394.31;;;20.07;100.00
11682;BME280;5897;42.640;23.310;2022-08-21T01:04:39;93385.06;;;20.15;100.00
11682;BME280;5897;42.640;23.310;2022-08-21T01:07:06;93379.34;;;20.13;100.00
11682;BME280;5897;42.640;23.310;2022-08-21T01:09:34;93374.09;;;20.10;100.00
11682;BME280;5897;42.640;23.310;2022-08-21T01:12:03;93371.13;;;20.13;100.00
11682;BME280;5897;42.640;23.310;2022-08-21T01:14:30;93374.34;;;20.12;100.00
11682;BME280;5897;42.640;23.310;2022-08-21T01:16:59;93369.88;;;20.09;100.00
11682;BME280;5897;42.640;23.310;2022-08-21T01:19:28;93368.88;;;20.06;100.00
11682;BME280;5897;42.640;23.310;2022-08-21T01:21:56;93368.88;;;20.06;100.00
11682;BME280;5897;42.640;23.310;2022-08-21T01:24:25;93370.38;;;20.13;100.00
11682;BME280;5897;42.640;23.310;2022-08-21T01:26:52;93356.41;;;20.11;100.00
11682;BME280;5897;42.640;23.310;2022-08-21T01:29:28;93353.66;;;20.16;100.00
11682;BME280;5897;42.640;23.310;2022-08-21T01:31:57;93357.41;;;20.13;100.00
11682;BME280;5897;42.640;23.310;2022-08-21T01:34:24;93371.34;;;20.21;100.00
11682;BME280;5897;42.640;23.310;2022-08-21T01:36:51;93375.09;;;20.07;100.00
11682;BME280;5897;42.640;23.310;2022-08-21T01:39:19;93375.31;;;19.98;100.00
11682;BME280;5897;42.640;23.310;2022-08-21T01:41:46;93370.84;;;19.89;100.00
11682;BME280;5897;42.640;23.310;2022-08-21T01:44:13;93379.06;;;19.73;100.00
11682;BME280;5897;42.640;23.310;2022-08-21T01:46:40;93371.34;;;19.55;100.00
11682;BME280;5897;42.640;23.310;2022-08-21T01:49:07;93366.81;;;19.41;100.00
11682;BME280;5897;42.640;23.310;2022-08-21T01:51:34;93360.34;;;19.49;100.00
11682;BME280;5897;42.640;23.310;2022-08-21T01:54:00;93368.81;;;19.46;100.00
11682;BME280;5897;42.640;23.310;2022-08-21T01:56:29;93368.56;;;19.49;100.00
11682;BME280;5897;42.640;23.310;2022-08-21T01:59:01;93372.31;;;19.52;100.00
11682;BME280;5897;42.640;23.310;2022-08-21T02:01:28;93368.56;;;19.38;100.00
11682;BME280;5897;42.640;23.310;2022-08-21T02:03:55;93375.31;;;19.43;100.00
11682;BME280;5897;42.640;23.310;2022-08-21T02:06:22;93371.72;;;19.20;100.00
11682;BME280;5897;42.640;23.310;2022-08-21T02:08:49;93374.00;;;19.22;100.00
11682;BME280;5897;42.640;23.310;2022-08-21T02:11:16;93374.44;;;19.04;100.00
11682;BME280;5897;42.640;23.310;2022-08-21T02:13:44;93375.91;;;19.05;100.00
11682;BME280;5897;42.640;23.310;2022-08-21T02:16:12;93382.06;;;18.89;100.00
11682;BME280;5897;42.640;23.310;2022-08-21T02:18:39;93378.81;;;18.79;100.00
11682;BME280;5897;42.640;23.310;2022-08-21T02:21:06;93381.78;;;18.76;100.00
11682;BME280;5897;42.640;23.310;2022-08-21T02:23:33;93381.00;;;18.70;100.00
11682;BME280;5897;42.640;23.310;2022-08-21T02:26:00;93388.22;;;18.67;100.00
11682;BME280;5897;42.640;23.310;2022-08-21T02:28:27;93393.47;;;18.76;100.00
11682;BME280;5897;42.640;23.310;2022-08-21T02:30:56;93395.75;;;18.89;100.00
11682;BME280;5897;42.640;23.310;2022-08-21T02:33:24;93392.28;;;18.94;100.00
11682;BME280;5897;42.640;23.310;2022-08-21T02:35:51;93394.09;;;19.08;100.00
11682;BME280;5897;42.640;23.310;2022-08-21T02:38:21;93394.13;;;19.19;100.00
11682;BME280;5897;42.640;23.310;2022-08-21T02:40:49;93393.69;;;19.26;100.00
11682;BME280;5897;42.640;23.310;2022-08-21T02:43:17;93391.72;;;19.32;100.00
11682;BME280;5897;42.640;23.310;2022-08-21T02:45:45;93390.72;;;19.40;100.00
11682;BME280;5897;42.640;23.310;2022-08-21T02:48:16;93390.22;;;19.36;100.00
11682;BME280;5897;42.640;23.310;2022-08-21T02:50:46;93391.72;;;19.32;100.00
11682;BME280;5897;42.640;23.310;2022-08-21T02:53:14;93391.47;;;19.35;100.00
11682;BME280;5897;42.640;23.310;2022-08-21T02:55:43;93385.22;;;19.35;100.00
11682;BME280;5897;42.640;23.310;2022-08-21T02:58:10;93389.47;;;19.36;100.00
11682;BME280;5897;42.640;23.310;2022-08-21T03:00:38;93388.47;;;19.39;100.00
11682;BME280;5897;42.640;23.310;2022-08-21T03:03:05;93394.94;;;19.30;100.00
11682;BME280;5897;42.640;23.310;2022-08-21T03:05:36;93391.44;;;19.24;100.00
11682;BME280;5897;42.640;23.310;2022-08-21T03:08:05;93391.84;;;19.06;100.00
11682;BME280;5897;42.640;23.310;2022-08-21T03:10:35;93398.59;;;19.11;100.00
11682;BME280;5897;42.640;23.310;2022-08-21T03:13:02;93386.66;;;19.14;100.00
11682;BME280;5897;42.640;23.310;2022-08-21T03:15:30;93382.47;;;19.24;100.00
11682;BME280;5897;42.640;23.310;2022-08-21T03:17:57;93390.16;;;19.20;100.00
11682;BME280;5897;42.640;23.310;2022-08-21T03:20:26;93393.63;;;19.15;100.00
11682;BME280;5897;42.640;23.310;2022-08-21T03:22:55;93389.88;;;19.12;100.00
11682;BME280;5897;42.640;23.310;2022-08-21T03:25:22;93388.34;;;19.00;100.00
11682;BME280;5897;42.640;23.310;2022-08-21T03:27:49;93380.88;;;18.95;100.00
11682;BME280;5897;42.640;23.310;2022-08-21T03:30:17;93379.38;;;19.00;100.00
11682;BME280;5897;42.640;23.310;2022-08-21T03:32:45;93385.63;;;19.00;100.00
11682;BME280;5897;42.640;23.310;2022-08-21T03:35:12;93381.16;;;19.08;100.00
11682;BME280;5897;42.640;23.310;2022-08-21T03:37:39;93371.00;;;19.20;100.00
11682;BME280;5897;42.640;23.310;2022-08-21T03:40:13;93379.22;;;19.20;100.00
11682;BME280;5897;42.640;23.310;2022-08-21T03:42:40;93381.50;;;19.27;100.00
11682;BME280;5897;42.640;23.310;2022-08-21T03:45:08;93381.50;;;19.32;100.00
11682;BME280;5897;42.640;23.310;2022-08-21T03:47:35;93379.25;;;19.31;100.00
11682;BME280;5897;42.640;23.310;2022-08-21T03:50:02;93386.97;;;19.27;100.00
11682;BME280;5897;42.640;23.310;2022-08-21T03:52:29;93378.22;;;19.23;100.00
11682;BME280;5897;42.640;23.310;2022-08-21T03:54:56;93394.94;;;19.30;100.00
11682;BME280;5897;42.640;23.310;2022-08-21T03:57:24;93406.41;;;19.34;100.00
11682;BME280;5897;42.640;23.310;2022-08-21T03:59:51;93404.91;;;19.39;100.00
11682;BME280;5897;42.640;23.310;2022-08-21T04:02:19;93404.44;;;19.40;100.00
11682;BME280;5897;42.640;23.310;2022-08-21T04:04:47;93400.19;;;19.45;100.00
11682;BME280;5897;42.640;23.310;2022-08-21T04:07:14;93413.66;;;19.43;100.00
11682;BME280;5897;42.640;23.310;2022-08-21T04:09:41;93416.31;;;19.21;100.00
11682;BME280;5897;42.640;23.310;2022-08-21T04:12:08;93407.63;;;19.28;100.00
11682;BME280;5897;42.640;23.310;2022-08-21T04:14:36;93405.91;;;19.36;100.00
11682;BME280;5897;42.640;23.310;2022-08-21T04:17:03;93390.47;;;19.38;100.00
11682;BME280;5897;42.640;23.310;2022-08-21T04:19:30;93402.94;;;19.45;100.00
11682;BME280;5897;42.640;23.310;2022-08-21T04:21:57;93402.44;;;19.41;100.00
11682;BME280;5897;42.640;23.310;2022-08-21T04:24:24;93399.72;;;19.52;100.00
11682;BME280;5897;42.640;23.310;2022-08-21T04:26:50;93399.47;;;19.55;100.00
11682;BME280;5897;42.640;23.310;2022-08-21T04:29:17;93389.25;;;19.45;100.00
11682;BME280;5897;42.640;23.310;2022-08-21T04:31:46;93402.97;;;19.56;100.00
11682;BME280;5897;42.640;23.310;2022-08-21T04:34:13;93400.22;;;19.56;100.00
11682;BME280;5897;42.640;23.310;2022-08-21T04:36:39;93409.19;;;19.62;100.00
11682;BME280;5897;42.640;23.310;2022-08-21T04:39:06;93402.25;;;19.72;100.00
11682;BME280;5897;42.640;23.310;2022-08-21T04:41:33;93404.22;;;19.66;100.00
11682;BME280;5897;42.640;23.310;2022-08-21T04:44:00;93394.00;;;19.61;100.00
11682;BME280;5897;42.640;23.310;2022-08-21T04:46:28;93388.78;;;19.57;100.00
11682;BME280;5897;42.640;23.310;2022-08-21T04:48:56;93385.78;;;19.61;100.00
11682;BME280;5897;42.640;23.310;2022-08-21T04:51:24;93400.25;;;19.67;100.00
11682;BME280;5897;42.640;23.310;2022-08-21T04:53:55;93385.78;;;19.61;100.00
11682;BME280;5897;42.640;23.310;2022-08-21T04:56:28;93394.28;;;19.79;100.00
11682;BME280;5897;42.640;23.310;2022-08-21T04:59:00;93394.78;;;19.78;100.00
11682;BME280;5897;42.640;23.310;2022-08-21T05:01:29;93391.28;;;19.88;100.00
11682;BME280;5897;42.640;23.310;2022-08-21T05:03:59;93401.25;;;19.97;100.00
11682;BME280;5897;42.640;23.310;2022-08-21T05:06:28;93384.53;;;19.89;100.00
11682;BME280;5897;42.640;23.310;2022-08-21T05:08:58;93398.28;;;20.17;100.00
11682;BME280;5897;42.640;23.310;2022-08-21T05:11:24;93398.28;;;20.17;100.00
11682;BME280;5897;42.640;23.310;2022-08-21T05:13:51;93397.78;;;20.18;100.00
11682;BME280;5897;42.640;23.310;2022-08-21T05:16:18;93410.25;;;20.25;100.00
11682;BME280;5897;42.640;23.310;2022-08-21T05:18:45;93396.28;;;20.23;100.00
11682;BME280;5897;42.640;23.310;2022-08-21T05:21:13;93397.00;;;20.34;100.00
11682;BME280;5897;42.640;23.310;2022-08-21T05:23:39;93400.47;;;20.51;100.00
11682;BME280;5897;42.640;23.310;2022-08-21T05:26:06;93409.44;;;20.63;100.00
11682;BME280;5897;42.640;23.310;2022-08-21T05:28:33;93415.91;;;20.76;100.00
11682;BME280;5897;42.640;23.310;2022-08-21T05:31:00;93402.88;;;20.88;100.00
11682;BME280;5897;42.640;23.310;2022-08-21T05:33:27;93403.09;;;21.01;100.00
11682;BME280;5897;42.640;23.310;2022-08-21T05:35:54;93400.53;;;21.25;100.00
11682;BME280;5897;42.640;23.310;2022-08-21T05:38:23;93397.47;;;21.34;100.00
11682;BME280;5897;42.640;23.310;2022-08-21T05:40:50;93402.69;;;21.43;100.00
11682;BME280;5897;42.640;23.310;2022-08-21T05:43:17;93402.81;;;21.61;100.00
11682;BME280;5897;42.640;23.310;2022-08-21T05:45:43;93393.03;;;21.71;100.00
11682;BME280;5897;42.640;23.310;2022-08-21T05:48:12;93399.22;;;21.83;100.00
11682;BME280;5897;42.640;23.310;2022-08-21T05:50:40;93400.16;;;21.91;98.40
11682;BME280;5897;42.640;23.310;2022-08-21T05:53:08;93397.88;;;21.95;97.13
11682;BME280;5897;42.640;23.310;2022-08-21T05:55:38;93382.16;;;21.90;97.34
11682;BME280;5897;42.640;23.310;2022-08-21T05:58:04;93384.69;;;21.82;95.60
11682;BME280;5897;42.640;23.310;2022-08-21T06:00:32;93396.06;;;21.68;98.32
11682;BME280;5897;42.640;23.310;2022-08-21T06:02:59;93401.81;;;21.70;96.10
11682;BME280;5897;42.640;23.310;2022-08-21T06:05:26;93396.75;;;21.74;96.78
11682;BME280;5897;42.640;23.310;2022-08-21T06:07:52;93400.84;;;21.97;97.89
11682;BME280;5897;42.640;23.310;2022-08-21T06:10:20;93400.31;;;22.04;97.59
11682;BME280;5897;42.640;23.310;2022-08-21T06:12:52;93399.84;;;22.00;97.24
11682;BME280;5897;42.640;23.310;2022-08-21T06:15:19;93401.72;;;22.16;97.60
11682;BME280;5897;42.640;23.310;2022-08-21T06:17:46;93398.97;;;22.16;96.21
11682;BME280;5897;42.640;23.310;2022-08-21T06:20:13;93390.63;;;22.27;95.81
11682;BME280;5897;42.640;23.310;2022-08-21T06:22:39;93384.25;;;22.37;94.77
11682;BME280;5897;42.640;23.310;2022-08-21T06:25:07;93382.59;;;22.58;94.71
11682;BME280;5897;42.640;23.310;2022-08-21T06:27:34;93389.06;;;22.61;95.04
11682;BME280;5897;42.640;23.310;2022-08-21T06:30:03;93391.09;;;22.55;94.66
11682;BME280;5897;42.640;23.310;2022-08-21T06:32:30;93391.44;;;22.75;92.36
11682;BME280;5897;42.640;23.310;2022-08-21T06:34:56;93394.97;;;22.94;92.09
11682;BME280;5897;42.640;23.310;2022-08-21T06:37:23;93395.75;;;22.89;91.27
11682;BME280;5897;42.640;23.310;2022-08-21T06:39:50;93400.75;;;22.91;91.28
11682;BME280;5897;42.640;23.310;2022-08-21T06:42:17;93404.66;;;23.01;89.95
11682;BME280;5897;42.640;23.310;2022-08-21T06:44:44;93398.88;;;23.04;86.19
11682;BME280;5897;42.640;23.310;2022-08-21T06:47:12;93401.75;;;23.12;83.65
11682;BME280;5897;42.640;23.310;2022-08-21T06:49:39;93409.75;;;23.15;83.24
11682;BME280;5897;42.640;23.310;2022-08-21T06:52:08;93407.41;;;23.25;84.55
11682;BME280;5897;42.640;23.310;2022-08-21T06:54:35;93408.53;;;23.35;83.94
11682;BME280;5897;42.640;23.310;2022-08-21T06:57:02;93415.31;;;23.34;81.57
11682;BME280;5897;42.640;23.310;2022-08-21T06:59:29;93408.00;;;23.36;82.96
11682;BME280;5897;42.640;23.310;2022-08-21T07:01:56;93406.72;;;23.37;82.54
11682;BME280;5897;42.640;23.310;2022-08-21T07:04:24;93411.44;;;23.24;82.89
11682;BME280;5897;42.640;23.310;2022-08-21T07:06:50;93419.78;;;23.37;82.88
11682;BME280;5897;42.640;23.310;2022-08-21T07:09:17;93404.13;;;23.45;81.73
11682;BME280;5897;42.640;23.310;2022-08-21T07:11:49;93411.28;;;23.53;79.88
11682;BME280;5897;42.640;23.310;2022-08-21T07:14:17;93416.59;;;23.51;77.71
11682;BME280;5897;42.640;23.310;2022-08-21T07:16:43;93418.16;;;23.47;77.35
11682;BME280;5897;42.640;23.310;2022-08-21T07:19:10;93418.16;;;23.47;78.50
11682;BME280;5897;42.640;23.310;2022-08-21T07:21:38;93415.84;;;23.32;76.85
11682;BME280;5897;42.640;23.310;2022-08-21T07:24:05;93416.34;;;23.31;78.76
11682;BME280;5897;42.640;23.310;2022-08-21T07:26:32;93415.63;;;23.49;79.28
11682;BME280;5897;42.640;23.310;2022-08-21T07:28:59;93409.16;;;23.65;79.64
11682;BME280;5897;42.640;23.310;2022-08-21T07:31:27;93401.28;;;23.87;79.94
11682;BME280;5897;42.640;23.310;2022-08-21T07:33:55;93401.25;;;23.93;79.82
11682;BME280;5897;42.640;23.310;2022-08-21T07:36:22;93403.44;;;24.13;80.14
11682;BME280;5897;42.640;23.310;2022-08-21T07:38:50;93386.50;;;24.22;74.17
11682;BME280;5897;42.640;23.310;2022-08-21T07:41:19;93391.47;;;24.55;75.12
11682;BME280;5897;42.640;23.310;2022-08-21T07:43:46;93391.06;;;24.64;73.01
11682;BME280;5897;42.640;23.310;2022-08-21T07:46:13;93402.50;;;24.55;75.40
11682;BME280;5897;42.640;23.310;2022-08-21T07:48:40;93387.13;;;24.28;78.87
11682;BME280;5897;42.640;23.310;2022-08-21T07:51:10;93384.88;;;24.58;79.41
11682;BME280;5897;42.640;23.310;2022-08-21T07:53:37;93384.69;;;24.69;74.36
11682;BME280;5897;42.640;23.310;2022-08-21T07:56:07;93390.34;;;24.76;69.97
11682;BME280;5897;42.640;23.310;2022-08-21T07:58:36;93391.28;;;24.79;76.81
11682;BME280;5897;42.640;23.310;2022-08-21T08:01:03;93381.72;;;24.67;79.17
11682;BME280;5897;42.640;23.310;2022-08-21T08:03:31;93392.16;;;25.00;72.65
11682;BME280;5897;42.640;23.310;2022-08-21T08:05:57;93391.00;;;25.08;71.45
11682;BME280;5897;42.640;23.310;2022-08-21T08:08:24;93390.22;;;25.21;70.70
11682;BME280;5897;42.640;23.310;2022-08-21T08:10:52;93401.94;;;25.01;71.27
11682;BME280;5897;42.640;23.310;2022-08-21T08:13:20;93395.13;;;25.02;69.76
11682;BME280;5897;42.640;23.310;2022-08-21T08:15:47;93375.03;;;24.88;70.64
11682;BME280;5897;42.640;23.310;2022-08-21T08:18:14;93390.88;;;25.14;71.54
11682;BME280;5897;42.640;23.310;2022-08-21T08:20:41;93392.38;;;25.02;70.82
11682;BME280;5897;42.640;23.310;2022-08-21T08:23:09;93386.94;;;24.96;69.45
11682;BME280;5897;42.640;23.310;2022-08-21T08:25:36;93398.50;;;24.82;73.22
11682;BME280;5897;42.640;23.310;2022-08-21T08:28:03;93393.31;;;24.78;74.20
11682;BME280;5897;42.640;23.310;2022-08-21T08:30:32;93398.63;;;24.76;73.88
11682;BME280;5897;42.640;23.310;2022-08-21T08:32:59;93394.38;;;24.88;73.99
11682;BME280;5897;42.640;23.310;2022-08-21T08:35:26;93392.78;;;24.93;73.23
11682;BME280;5897;42.640;23.310;2022-08-21T08:37:54;93400.66;;;25.02;72.43
11682;BME280;5897;42.640;23.310;2022-08-21T08:40:27;93399.06;;;25.06;71.28
11682;BME280;5897;42.640;23.310;2022-08-21T08:42:58;93402.03;;;25.21;71.54
11682;BME280;5897;42.640;23.310;2022-08-21T08:45:25;93388.88;;;25.14;70.84
11682;BME280;5897;42.640;23.310;2022-08-21T08:47:59;93400.88;;;25.30;69.29
11682;BME280;5897;42.640;23.310;2022-08-21T08:50:33;93392.06;;;25.31;66.69
11682;BME280;5897;42.640;23.310;2022-08-21T08:53:07;93391.28;;;25.44;66.17
11682;BME280;5897;42.640;23.310;2022-08-21T08:55:38;93391.50;;;25.33;67.90
11682;BME280;5897;42.640;23.310;2022-08-21T08:58:05;93378.53;;;25.15;66.85
11682;BME280;5897;42.640;23.310;2022-08-21T09:00:33;93383.75;;;25.18;66.03
11682;BME280;5897;42.640;23.310;2022-08-21T09:03:02;93380.97;;;25.44;68.07
11682;BME280;5897;42.640;23.310;2022-08-21T09:05:33;93378.06;;;25.63;68.81
11682;BME280;5897;42.640;23.310;2022-08-21T09:08:25;93377.25;;;25.88;67.08
11682;BME280;5897;42.640;23.310;2022-08-21T09:11:00;93373.34;;;26.04;65.96
11682;BME280;5897;42.640;23.310;2022-08-21T09:13:37;93375.75;;;26.21;65.59
11682;BME280;5897;42.640;23.310;2022-08-21T09:16:13;93369.53;;;26.28;65.62
11682;BME280;5897;42.640;23.310;2022-08-21T09:18:54;93361.75;;;26.06;65.99
11682;BME280;5897;42.640;23.310;2022-08-21T09:21:34;93360.81;;;26.24;62.65
11682;BME280;5897;42.640;23.310;2022-08-21T09:24:12;93356.72;;;26.17;62.77
11682;BME280;5897;42.640;23.310;2022-08-21T09:26:48;93333.59;;;26.15;62.65
11682;BME280;5897;42.640;23.310;2022-08-21T09:29:20;93356.09;;;26.32;59.27
11682;BME280;5897;42.640;23.310;2022-08-21T09:31:49;93351.09;;;26.10;62.61
11682;BME280;5897;42.640;23.310;2022-08-21T09:34:26;93351.50;;;26.14;64.18
11682;BME280;5897;42.640;23.310;2022-08-21T09:36:53;93354.28;;;26.14;62.84
11682;BME280;5897;42.640;23.310;2022-08-21T09:39:24;93345.03;;;26.11;61.45
11682;BME280;5897;42.640;23.310;2022-08-21T09:41:56;93349.00;;;26.03;60.21
11682;BME280;5897;42.640;23.310;2022-08-21T09:44:25;93347.63;;;25.96;62.10
11682;BME280;5897;42.640;23.310;2022-08-21T09:46:52;93337.44;;;25.91;62.71
11682;BME280;5897;42.640;23.310;2022-08-21T09:49:28;93353.53;;;25.80;60.29
11682;BME280;5897;42.640;23.310;2022-08-21T09:51:56;93339.19;;;25.68;63.21
11682;BME280;5897;42.640;23.310;2022-08-21T09:54:27;93336.56;;;25.63;63.16
11682;BME280;5897;42.640;23.310;2022-08-21T09:56:57;93342.91;;;25.71;64.52
11682;BME280;5897;42.640;23.310;2022-08-21T09:59:43;93341.88;;;25.74;66.00
11682;BME280;5897;42.640;23.310;2022-08-21T10:02:24;93344.41;;;25.72;65.76
11682;BME280;5897;42.640;23.310;2022-08-21T10:04:56;93333.38;;;25.59;66.25
11682;BME280;5897;42.640;23.310;2022-08-21T10:07:26;93337.63;;;25.60;64.55
11682;BME280;5897;42.640;23.310;2022-08-21T10:10:03;93337.31;;;25.63;65.93
11682;BME280;5897;42.640;23.310;2022-08-21T10:12:37;93340.81;;;25.64;65.95
11682;BME280;5897;42.640;23.310;2022-08-21T10:15:13;93334.75;;;25.65;66.89
11682;BME280;5897;42.640;23.310;2022-08-21T10:17:45;93330.94;;;25.89;66.33
11682;BME280;5897;42.640;23.310;2022-08-21T10:20:20;93326.63;;;26.01;65.41
11682;BME280;5897;42.640;23.310;2022-08-21T10:22:57;93322.59;;;26.22;63.67
11682;BME280;5897;42.640;23.310;2022-08-21T10:25:33;93315.88;;;26.59;63.12
11682;BME280;5897;42.640;23.310;2022-08-21T10:28:08;93307.09;;;26.47;62.26
11682;BME280;5897;42.640;23.310;2022-08-21T10:30:43;93303.84;;;26.84;61.33
11682;BME280;5897;42.640;23.310;2022-08-21T10:33:30;93310.28;;;27.15;60.33
11682;BME280;5897;42.640;23.310;2022-08-21T10:36:09;93302.47;;;27.41;57.63
11682;BME280;5897;42.640;23.310;2022-08-21T10:38:56;93284.09;;;27.74;57.93
11682;BME280;5897;42.640;23.310;2022-08-21T10:41:31;93301.91;;;28.08;57.03
11682;BME280;5897;42.640;23.310;2022-08-21T10:44:13;93307.66;;;28.18;54.93
11682;BME280;5897;42.640;23.310;2022-08-21T10:46:51;93298.59;;;28.25;55.62
11682;BME280;5897;42.640;23.310;2022-08-21T10:49:27;93296.94;;;28.52;56.01
11682;BME280;5897;42.640;23.310;2022-08-21T10:52:12;93287.88;;;28.44;56.34
11682;BME280;5897;42.640;23.310;2022-08-21T10:54:48;93291.38;;;28.29;55.95
11682;BME280;5897;42.640;23.310;2022-08-21T10:57:24;93290.84;;;28.46;53.85
11682;BME280;5897;42.640;23.310;2022-08-21T10:59:57;93281.78;;;28.45;54.33
11682;BME280;5897;42.640;23.310;2022-08-21T11:02:30;93284.56;;;28.53;54.37
11682;BME280;5897;42.640;23.310;2022-08-21T11:05:01;93278.19;;;28.97;51.22
11682;BME280;5897;42.640;23.310;2022-08-21T11:07:32;93282.13;;;29.41;51.44
11682;BME280;5897;42.640;23.310;2022-08-21T11:10:05;93274.09;;;29.85;47.71
11682;BME280;5897;42.640;23.310;2022-08-21T11:12:40;93264.34;;;30.25;49.09
11682;BME280;5897;42.640;23.310;2022-08-21T11:15:18;93259.06;;;30.12;48.74
11682;BME280;5897;42.640;23.310;2022-08-21T11:17:52;93262.06;;;30.07;48.06
11682;BME280;5897;42.640;23.310;2022-08-21T11:20:27;93258.47;;;29.89;45.52
11682;BME280;5897;42.640;23.310;2022-08-21T11:23:03;93249.13;;;29.70;47.73
11682;BME280;5897;42.640;23.310;2022-08-21T11:25:35;93257.31;;;29.68;47.59
11682;BME280;5897;42.640;23.310;2022-08-21T11:28:08;93256.13;;;29.46;47.55
11682;BME280;5897;42.640;23.310;2022-08-21T11:30:44;93259.09;;;29.41;46.72
11682;BME280;5897;42.640;23.310;2022-08-21T11:33:26;93257.66;;;29.32;48.07
11682;BME280;5897;42.640;23.310;2022-08-21T11:36:00;93253.81;;;29.20;48.88
11682;BME280;5897;42.640;23.310;2022-08-21T11:38:34;93255.16;;;29.12;48.22
11682;BME280;5897;42.640;23.310;2022-08-21T11:41:13;93255.16;;;29.12;49.00
11682;BME280;5897;42.640;23.310;2022-08-21T11:43:45;93251.34;;;28.70;48.77
11682;BME280;5897;42.640;23.310;2022-08-21T11:46:20;93261.00;;;28.54;47.29
11682;BME280;5897;42.640;23.310;2022-08-21T11:49:17;93248.78;;;28.27;50.29
11682;BME280;5897;42.640;23.310;2022-08-21T11:51:55;93252.88;;;27.96;50.66
11682;BME280;5897;42.640;23.310;2022-08-21T11:54:29;93251.72;;;27.84;50.30
11682;BME280;5897;42.640;23.310;2022-08-21T11:57:05;93248.94;;;27.84;52.55
11682;BME280;5897;42.640;23.310;2022-08-21T11:59:38;93244.41;;;27.36;52.56
11682;BME280;5897;42.640;23.310;2022-08-21T12:02:10;93237.56;;;27.37;52.60
11682;BME280;5897;42.640;23.310;2022-08-21T12:04:44;93239.59;;;27.36;52.78
11682;BME280;5897;42.640;23.310;2022-08-21T12:07:15;93233.91;;;27.06;54.20
11682;BME280;5897;42.640;23.310;2022-08-21T12:09:55;93222.81;;;26.99;56.02
11682;BME280;5897;42.640;23.310;2022-08-21T12:12:25;93221.28;;;26.90;56.72
11682;BME280;5897;42.640;23.310;2022-08-21T12:15:14;93223.31;;;26.90;56.62
11682;BME280;5897;42.640;23.310;2022-08-21T12:17:52;93228.47;;;26.86;56.41
11682;BME280;5897;42.640;23.310;2022-08-21T12:20:26;93227.69;;;26.78;55.81
11682;BME280;5897;42.640;23.310;2022-08-21T12:23:02;93227.97;;;26.59;57.05
11682;BME280;5897;42.640;23.310;2022-08-21T12:25:38;93244.94;;;26.56;56.59
11682;BME280;5897;42.640;23.310;2022-08-21T12:28:08;93222.81;;;26.35;57.51
11682;BME280;5897;42.640;23.310;2022-08-21T12:30:38;93239.13;;;26.46;57.10
11682;BME280;5897;42.640;23.310;2022-08-21T12:33:20;93243.22;;;26.53;56.65
11682;BME280;5897;42.640;23.310;2022-08-21T12:35:49;93242.78;;;26.41;56.37
11682;BME280;5897;42.640;23.310;2022-08-21T12:38:20;93236.16;;;26.44;56.74
11682;BME280;5897;42.640;23.310;2022-08-21T12:40:53;93230.59;;;26.37;57.71
11682;BME280;5897;42.640;23.310;2022-08-21T12:43:25;93228.00;;;26.39;58.32
11682;BME280;5897;42.640;23.310;2022-08-21T12:45:52;93236.84;;;26.37;59.73
11682;BME280;5897;42.640;23.310;2022-08-21T12:48:22;93227.34;;;26.25;60.54
11682;BME280;5897;42.640;23.310;2022-08-21T12:50:51;93229.53;;;26.19;61.49
11682;BME280;5897;42.640;23.310;2022-08-21T12:53:25;93235.88;;;26.07;61.45
11682;BME280;5897;42.640;23.310;2022-08-21T12:55:56;93217.41;;;26.02;61.92
11682;BME280;5897;42.640;23.310;2022-08-21T12:58:27;93214.84;;;26.04;62.33
11682;BME280;5897;42.640;23.310;2022-08-21T13:00:58;93221.44;;;26.01;63.51
11682;BME280;5897;42.640;23.310;2022-08-21T13:03:27;93215.03;;;26.06;63.98
11682;BME280;5897;42.640;23.310;2022-08-21T13:05:54;93211.72;;;25.87;64.67
11682;BME280;5897;42.640;23.310;2022-08-21T13:08:22;93225.91;;;25.83;64.34